createdAt,value
2019-05-16T00:04:08.714Z,2.90
2019-05-16T00:09:14.725Z,2.23
2019-05-16T00:14:20.484Z,2.30
2019-05-16T00:19:28.615Z,2.20
2019-05-16T00:24:33.561Z,2.73
2019-05-16T00:29:40.359Z,2.00
2019-05-16T00:34:47.794Z,2.27
2019-05-16T00:39:53.735Z,2.43
2019-05-16T00:44:59.528Z,2.77
2019-05-16T00:50:05.798Z,3.20
2019-05-16T00:55:11.441Z,3.00
2019-05-16T01:00:18.681Z,4.20
2019-05-16T01:05:28.419Z,4.20
2019-05-16T01:10:34.492Z,3.40
2019-05-16T01:15:40.402Z,3.53
2019-05-16T01:20:48.054Z,3.40
2019-05-16T01:25:53.555Z,2.67
2019-05-16T01:30:59.253Z,2.77
2019-05-16T01:36:04.895Z,2.80
2019-05-16T01:41:10.510Z,2.60
2019-05-16T01:46:18.029Z,3.60
2019-05-16T01:51:23.737Z,3.30
2019-05-16T01:56:29.394Z,3.00
2019-05-16T02:01:37.702Z,3.47
2019-05-16T02:06:51.742Z,3.27
2019-05-16T02:11:50.443Z,4.47
2019-05-16T02:16:58.029Z,3.37
2019-05-16T02:22:03.756Z,3.03
2019-05-16T02:27:09.715Z,3.17
2019-05-16T02:32:15.545Z,3.37
2019-05-16T02:37:29.271Z,3.90
2019-05-16T02:42:30.956Z,3.23
2019-05-16T02:47:36.275Z,3.13
2019-05-16T02:52:41.946Z,2.37
2019-05-16T02:57:47.521Z,3.23
2019-05-16T03:02:53.429Z,2.97
2019-05-16T03:08:02.783Z,2.83
2019-05-16T03:13:11.182Z,3.90
2019-05-16T03:18:23.819Z,3.40
2019-05-16T03:23:32.792Z,3.60
2019-05-16T03:28:41.089Z,3.70
2019-05-16T03:33:52.292Z,3.50
2019-05-16T03:38:54.744Z,3.47
2019-05-16T03:44:01.552Z,2.63
2019-05-16T03:49:11.070Z,3.27
2019-05-16T03:54:14.828Z,3.20
2019-05-16T03:59:21.547Z,3.17
2019-05-16T04:04:30.797Z,3.53
2019-05-16T04:09:40.858Z,3.33
2019-05-16T04:14:45.289Z,3.70
2019-05-16T04:19:51.116Z,3.53
2019-05-16T04:24:56.924Z,3.17
2019-05-16T04:30:02.599Z,3.00
2019-05-16T04:35:11.181Z,3.50
2019-05-16T04:40:16.028Z,3.83
2019-05-16T04:45:21.697Z,3.07
2019-05-16T04:50:27.273Z,3.97
2019-05-16T04:55:33.010Z,3.97
2019-05-16T05:00:41.842Z,3.90
2019-05-16T05:05:46.180Z,4.73
2019-05-16T05:10:52.237Z,4.60
2019-05-16T05:15:58.001Z,4.90
2019-05-16T05:21:03.595Z,3.67
2019-05-16T05:26:10.819Z,4.00
2019-05-16T05:31:16.643Z,4.47
2019-05-16T05:36:22.429Z,3.33
2019-05-16T05:41:30.138Z,4.43
2019-05-16T05:46:35.455Z,4.00
2019-05-16T05:51:41.214Z,4.10
2019-05-16T05:56:46.853Z,4.13
2019-05-16T06:01:52.537Z,5.00
2019-05-16T06:07:00.936Z,4.43
2019-05-16T06:12:07.523Z,4.23
2019-05-16T06:17:12.944Z,4.73
2019-05-16T06:22:20.537Z,3.63
2019-05-16T06:27:25.944Z,3.90
2019-05-16T06:32:31.563Z,4.40
2019-05-16T06:37:37.180Z,4.30
2019-05-16T06:42:42.876Z,4.30
2019-05-16T06:47:50.373Z,4.27
2019-05-16T06:52:55.862Z,5.03
2019-05-16T06:58:01.551Z,4.73
2019-05-16T07:03:09.520Z,4.67
2019-05-16T07:08:14.887Z,5.03
2019-05-16T07:13:20.607Z,5.00
2019-05-16T07:18:26.261Z,3.83
2019-05-16T07:23:32.049Z,5.00
2019-05-16T07:28:37.730Z,4.97
2019-05-16T07:33:43.579Z,4.80
2019-05-16T07:38:50.689Z,5.20
2019-05-16T07:43:57.869Z,4.90
2019-05-16T07:49:03.675Z,5.43
2019-05-16T07:54:10.485Z,4.53
2019-05-16T07:59:16.396Z,5.33
2019-05-16T08:04:22.051Z,4.47
2019-05-16T08:09:30.426Z,5.10
2019-05-16T08:14:35.325Z,5.03
2019-05-16T08:19:41.993Z,5.27
2019-05-16T08:24:47.606Z,5.53
2019-05-16T08:29:53.194Z,4.97
2019-05-16T08:35:01.041Z,5.07
2019-05-16T08:40:11.788Z,5.73
2019-05-16T08:45:20.997Z,6.40
2019-05-16T08:50:25.306Z,5.97
2019-05-16T08:55:31.449Z,5.30
2019-05-16T09:00:37.143Z,6.33
2019-05-16T09:05:43.137Z,5.47
2019-05-16T09:11:00.814Z,5.30
2019-05-16T09:15:57.182Z,5.63
2019-05-16T09:21:04.038Z,5.57
2019-05-16T09:26:09.724Z,6.23
2019-05-16T09:31:17.918Z,5.57
2019-05-16T09:36:22.882Z,6.73
2019-05-16T09:41:46.206Z,6.13
2019-05-16T09:46:37.605Z,6.10
2019-05-16T09:51:43.717Z,7.57
2019-05-16T09:56:49.578Z,7.03
2019-05-16T10:01:57.115Z,7.30
2019-05-16T10:07:03.321Z,6.17
2019-05-16T10:12:15.225Z,5.50
2019-05-16T10:17:17.784Z,6.87
2019-05-16T10:22:23.637Z,7.87
2019-05-16T10:27:29.344Z,7.70
2019-05-16T10:32:36.496Z,9.73
2019-05-16T10:37:42.465Z,9.57
2019-05-16T10:42:48.126Z,10.57
2019-05-16T10:47:53.848Z,10.03
2019-05-16T10:53:22.679Z,10.50
2019-05-16T10:58:07.654Z,9.80
2019-05-16T11:03:14.004Z,10.10
2019-05-16T11:08:19.650Z,9.87
2019-05-16T11:13:27.718Z,9.30
2019-05-16T11:18:33.485Z,10.70
2019-05-16T11:23:39.707Z,9.33
2019-05-16T11:28:48.566Z,9.27
2019-05-16T11:33:52.853Z,9.30
2019-05-16T11:39:01.853Z,10.10
2019-05-16T11:44:07.533Z,10.23
2019-05-16T11:49:13.245Z,10.13
2019-05-16T11:54:19.021Z,11.03
2019-05-16T11:59:25.750Z,11.00
2019-05-16T12:04:31.546Z,12.43
2019-05-16T12:09:46.798Z,12.97
2019-05-16T12:14:44.800Z,13.27
2019-05-16T12:19:52.849Z,12.77
2019-05-16T12:24:57.917Z,12.97
2019-05-16T12:30:12.951Z,13.63
2019-05-16T12:35:12.319Z,14.97
2019-05-16T12:40:19.137Z,17.70
2019-05-16T12:45:27.461Z,16.23
2019-05-16T12:50:33.474Z,13.60
2019-05-16T12:55:39.148Z,13.30
2019-05-16T13:00:53.953Z,13.40
2019-05-16T13:05:52.256Z,12.90
2019-05-16T13:10:58.014Z,13.17
2019-05-16T13:16:03.698Z,11.63
2019-05-16T13:21:09.368Z,13.27
2019-05-16T13:26:17.511Z,11.33
2019-05-16T13:31:22.668Z,12.30
2019-05-16T13:36:28.560Z,12.33
2019-05-16T13:41:34.640Z,12.63
2019-05-16T13:46:41.508Z,11.37
2019-05-16T13:51:48.040Z,11.10
2019-05-16T13:56:53.839Z,10.80
2019-05-16T14:01:59.507Z,10.17
2019-05-16T14:07:07.624Z,11.53
2019-05-16T14:12:14.808Z,11.80
2019-05-16T14:17:20.568Z,10.73
2019-05-16T14:22:27.809Z,9.37
2019-05-16T14:27:34.586Z,9.90
2019-05-16T14:32:43.463Z,11.00
2019-05-16T14:37:47.936Z,10.83
2019-05-16T14:42:54.209Z,11.87
2019-05-16T14:47:59.998Z,11.73
2019-05-16T14:53:07.321Z,11.63
2019-05-16T14:58:13.567Z,12.97
2019-05-16T15:03:19.403Z,11.60
2019-05-16T15:08:25.117Z,13.03
2019-05-16T15:13:30.815Z,11.67
2019-05-16T15:18:38.448Z,12.90
2019-05-16T15:23:44.040Z,13.33
2019-05-16T15:28:51.148Z,14.03
2019-05-16T15:33:57.324Z,13.50
2019-05-16T15:39:03.624Z,13.27
2019-05-16T15:44:09.416Z,13.80
2019-05-16T15:49:17.082Z,15.80
2019-05-16T15:54:28.586Z,12.93
2019-05-16T15:59:33.383Z,13.30
2019-05-16T16:04:39.573Z,13.10
2019-05-16T16:09:47.084Z,13.27
2019-05-16T16:14:57.430Z,13.83
2019-05-16T16:20:02.997Z,14.33
2019-05-16T16:25:09.931Z,14.67
2019-05-16T16:30:18.491Z,14.37
2019-05-16T16:35:23.180Z,14.43
2019-05-16T16:40:28.913Z,13.87
2019-05-16T16:45:35.728Z,13.53
2019-05-16T16:50:41.442Z,12.33
2019-05-16T16:55:47.640Z,14.77
2019-05-16T17:00:54.651Z,13.00
2019-05-16T17:06:00.582Z,13.53
2019-05-16T17:11:07.031Z,13.97
2019-05-16T17:16:25.346Z,13.60
2019-05-16T17:21:21.077Z,14.63
2019-05-16T17:26:27.498Z,14.80
2019-05-16T17:31:33.547Z,14.87
2019-05-16T17:36:39.381Z,14.83
2019-05-16T17:41:49.171Z,17.83
2019-05-16T17:46:53.035Z,16.13
2019-05-16T17:51:58.954Z,18.07
2019-05-16T17:57:07.261Z,15.87
2019-05-16T18:02:12.295Z,14.63
2019-05-16T18:07:18.747Z,14.13
2019-05-16T18:12:27.392Z,12.90
2019-05-16T18:17:33.270Z,11.80
2019-05-16T18:22:39.153Z,11.70
2019-05-16T18:27:44.917Z,13.10
2019-05-16T18:32:50.935Z,13.47
2019-05-16T18:37:57.011Z,12.60
2019-05-16T18:43:03.020Z,11.17
2019-05-16T18:48:08.818Z,9.33
2019-05-16T18:53:17.872Z,10.17
2019-05-16T18:58:23.418Z,10.47
2019-05-16T19:03:29.181Z,9.70
2019-05-16T19:08:36.537Z,10.07
2019-05-16T19:13:42.459Z,13.77
2019-05-16T19:18:48.253Z,12.73
2019-05-16T19:23:56.173Z,9.80
2019-05-16T19:29:01.912Z,12.27
2019-05-16T19:34:07.889Z,11.60
2019-05-16T19:39:13.652Z,11.13
2019-05-16T19:44:19.735Z,12.97
2019-05-16T19:49:27.576Z,10.07
2019-05-16T19:54:33.118Z,10.80
2019-05-16T19:59:39.015Z,12.87
2019-05-16T20:04:46.939Z,7.60
2019-05-16T20:09:52.468Z,7.97
2019-05-16T20:15:07.904Z,7.23
2019-05-16T20:20:06.774Z,6.30
2019-05-16T20:25:12.840Z,6.90
2019-05-16T20:30:19.427Z,7.53
2019-05-16T20:35:26.706Z,8.13
2019-05-16T20:40:32.732Z,8.70
2019-05-16T20:45:39.713Z,8.77
2019-05-16T20:50:48.885Z,10.17
2019-05-16T20:55:53.392Z,9.97
2019-05-16T21:01:01.490Z,11.50
2019-05-16T21:06:08.526Z,11.73
2019-05-16T21:11:17.020Z,13.00
2019-05-16T21:16:21.966Z,13.30
2019-05-16T21:21:28.721Z,13.80
2019-05-16T21:26:36.663Z,13.73
2019-05-16T21:31:43.465Z,14.10
2019-05-16T21:36:49.306Z,15.67
2019-05-16T21:41:56.365Z,14.03
2019-05-16T21:47:02.594Z,14.60
2019-05-16T21:52:08.423Z,17.20
2019-05-16T21:57:19.632Z,17.00
2019-05-16T22:02:22.720Z,17.97
2019-05-16T22:07:33.518Z,17.10
2019-05-16T22:12:38.435Z,16.37
2019-05-16T22:17:43.739Z,15.70
2019-05-16T22:22:49.419Z,18.70
2019-05-16T22:27:57.372Z,19.23
2019-05-16T22:33:02.577Z,17.13
2019-05-16T22:38:08.346Z,18.70
2019-05-16T22:43:14.283Z,17.43
2019-05-16T22:48:20.044Z,16.67
2019-05-16T22:53:27.171Z,16.87
2019-05-16T22:58:33.154Z,16.23
2019-05-16T23:03:38.937Z,15.97
2019-05-16T23:08:47.015Z,16.97
2019-05-16T23:13:52.201Z,17.47
2019-05-16T23:18:57.956Z,15.97
2019-05-16T23:24:03.693Z,12.53
2019-05-16T23:29:09.441Z,13.40
2019-05-16T23:34:18.568Z,12.20
2019-05-16T23:39:23.621Z,12.03
2019-05-16T23:44:29.296Z,13.13
2019-05-16T23:49:36.684Z,10.70
2019-05-16T23:54:42.483Z,11.50
2019-05-16T23:59:48.154Z,12.17
